sensor_id;sensor_type;location;lat;lon;timestamp;P1;durP1;ratioP1;P2;durP2;ratioP2
63110;SDS011;49201;53.426;10.300;2023-02-11T00:00:56;60.83;;;32.33;;
63110;SDS011;49201;53.426;10.300;2023-02-11T00:03:21;66.53;;;32.40;;
63110;SDS011;49201;53.426;10.300;2023-02-11T00:05:59;60.83;;;32.60;;
63110;SDS011;49201;53.426;10.300;2023-02-11T00:08:26;58.27;;;33.47;;
63110;SDS011;49201;53.426;10.300;2023-02-11T00:10:52;57.80;;;31.93;;
63110;SDS011;49201;53.426;10.300;2023-02-11T00:13:19;61.13;;;34.03;;
63110;SDS011;49201;53.426;10.300;2023-02-11T00:15:44;55.10;;;31.90;;
63110;SDS011;49201;53.426;10.300;2023-02-11T00:18:10;58.83;;;31.93;;
63110;SDS011;49201;53.426;10.300;2023-02-11T00:20:37;55.70;;;32.07;;
63110;SDS011;49201;53.426;10.300;2023-02-11T00:23:03;58.40;;;32.67;;
63110;SDS011;49201;53.426;10.300;2023-02-11T00:25:28;54.60;;;32.93;;
63110;SDS011;49201;53.426;10.300;2023-02-11T00:27:54;61.73;;;33.83;;
63110;SDS011;49201;53.426;10.300;2023-02-11T00:30:19;58.33;;;33.40;;
63110;SDS011;49201;53.426;10.300;2023-02-11T00:32:45;57.40;;;33.60;;
63110;SDS011;49201;53.426;10.300;2023-02-11T00:35:11;62.63;;;34.93;;
63110;SDS011;49201;53.426;10.300;2023-02-11T00:37:37;68.43;;;35.10;;
63110;SDS011;49201;53.426;10.300;2023-02-11T00:40:03;62.83;;;33.97;;
63110;SDS011;49201;53.426;10.300;2023-02-11T00:42:31;61.80;;;33.67;;
63110;SDS011;49201;53.426;10.300;2023-02-11T00:45:00;65.40;;;35.43;;
63110;SDS011;49201;53.426;10.300;2023-02-11T00:47:26;62.53;;;34.13;;
63110;SDS011;49201;53.426;10.300;2023-02-11T00:49:51;63.93;;;36.50;;
63110;SDS011;49201;53.426;10.300;2023-02-11T00:52:17;66.00;;;36.47;;
63110;SDS011;49201;53.426;10.300;2023-02-11T00:54:43;58.47;;;33.83;;
63110;SDS011;49201;53.426;10.300;2023-02-11T00:57:08;63.87;;;35.43;;
63110;SDS011;49201;53.426;10.300;2023-02-11T00:59:34;66.47;;;34.40;;
63110;SDS011;49201;53.426;10.300;2023-02-11T01:02:00;60.37;;;34.57;;
63110;SDS011;49201;53.426;10.300;2023-02-11T01:04:25;64.70;;;35.73;;
63110;SDS011;49201;53.426;10.300;2023-02-11T01:06:51;65.93;;;36.30;;
63110;SDS011;49201;53.426;10.300;2023-02-11T01:09:16;71.63;;;36.07;;
63110;SDS011;49201;53.426;10.300;2023-02-11T01:11:42;66.80;;;36.43;;
63110;SDS011;49201;53.426;10.300;2023-02-11T01:14:09;68.50;;;37.10;;
63110;SDS011;49201;53.426;10.300;2023-02-11T01:16:34;65.47;;;37.17;;
63110;SDS011;49201;53.426;10.300;2023-02-11T01:19:00;63.67;;;38.00;;
63110;SDS011;49201;53.426;10.300;2023-02-11T01:21:25;68.90;;;38.23;;
63110;SDS011;49201;53.426;10.300;2023-02-11T01:23:51;68.50;;;39.17;;
63110;SDS011;49201;53.426;10.300;2023-02-11T01:26:17;74.67;;;38.07;;
63110;SDS011;49201;53.426;10.300;2023-02-11T01:28:43;72.47;;;39.70;;
63110;SDS011;49201;53.426;10.300;2023-02-11T01:31:08;75.20;;;39.80;;
63110;SDS011;49201;53.426;10.300;2023-02-11T01:33:34;71.53;;;40.07;;
63110;SDS011;49201;53.426;10.300;2023-02-11T01:36:00;71.30;;;39.33;;
63110;SDS011;49201;53.426;10.300;2023-02-11T01:38:27;77.20;;;41.00;;
63110;SDS011;49201;53.426;10.300;2023-02-11T01:43:19;71.63;;;40.53;;
63110;SDS011;49201;53.426;10.300;2023-02-11T01:48:18;71.80;;;39.10;;
63110;SDS011;49201;53.426;10.300;2023-02-11T01:50:47;75.47;;;39.60;;
63110;SDS011;49201;53.426;10.300;2023-02-11T01:53:17;72.43;;;39.93;;
63110;SDS011;49201;53.426;10.300;2023-02-11T01:56:02;66.07;;;38.70;;
63110;SDS011;49201;53.426;10.300;2023-02-11T01:58:47;72.07;;;39.50;;
63110;SDS011;49201;53.426;10.300;2023-02-11T02:01:15;67.80;;;39.40;;
63110;SDS011;49201;53.426;10.300;2023-02-11T02:03:46;73.00;;;39.73;;
63110;SDS011;49201;53.426;10.300;2023-02-11T02:06:21;75.57;;;39.47;;
63110;SDS011;49201;53.426;10.300;2023-02-11T02:08:56;76.77;;;38.33;;
63110;SDS011;49201;53.426;10.300;2023-02-11T02:11:28;71.13;;;39.17;;
63110;SDS011;49201;53.426;10.300;2023-02-11T02:13:53;72.77;;;38.20;;
63110;SDS011;49201;53.426;10.300;2023-02-11T02:16:20;70.97;;;39.30;;
63110;SDS011;49201;53.426;10.300;2023-02-11T02:24:43;70.83;;;37.67;;
63110;SDS011;49201;53.426;10.300;2023-02-11T02:38:47;69.77;;;36.67;;
63110;SDS011;49201;53.426;10.300;2023-02-11T02:41:15;69.63;;;35.67;;
63110;SDS011;49201;53.426;10.300;2023-02-11T02:43:46;62.70;;;34.03;;
63110;SDS011;49201;53.426;10.300;2023-02-11T02:46:20;64.10;;;33.93;;
63110;SDS011;49201;53.426;10.300;2023-02-11T02:48:48;64.40;;;35.33;;
63110;SDS011;49201;53.426;10.300;2023-02-11T03:07:44;52.87;;;30.63;;
63110;SDS011;49201;53.426;10.300;2023-02-11T03:10:39;56.23;;;30.53;;
63110;SDS011;49201;53.426;10.300;2023-02-11T03:13:05;58.87;;;31.33;;
63110;SDS011;49201;53.426;10.300;2023-02-11T03:15:33;60.90;;;31.30;;
63110;SDS011;49201;53.426;10.300;2023-02-11T03:18:03;51.70;;;29.70;;
63110;SDS011;49201;53.426;10.300;2023-02-11T03:20:32;60.53;;;31.17;;
63110;SDS011;49201;53.426;10.300;2023-02-11T03:23:04;59.13;;;30.13;;
63110;SDS011;49201;53.426;10.300;2023-02-11T03:25:49;61.63;;;30.20;;
63110;SDS011;49201;53.426;10.300;2023-02-11T03:28:30;58.13;;;31.43;;
63110;SDS011;49201;53.426;10.300;2023-02-11T03:36:29;62.27;;;30.03;;
63110;SDS011;49201;53.426;10.300;2023-02-11T03:39:00;64.13;;;31.80;;
63110;SDS011;49201;53.426;10.300;2023-02-11T03:41:27;57.90;;;30.97;;
63110;SDS011;49201;53.426;10.300;2023-02-11T03:43:56;58.00;;;30.27;;
63110;SDS011;49201;53.426;10.300;2023-02-11T03:46:26;59.77;;;30.00;;
63110;SDS011;49201;53.426;10.300;2023-02-11T03:48:57;58.20;;;29.00;;
63110;SDS011;49201;53.426;10.300;2023-02-11T03:51:26;58.50;;;30.67;;
63110;SDS011;49201;53.426;10.300;2023-02-11T03:53:55;57.67;;;30.73;;
63110;SDS011;49201;53.426;10.300;2023-02-11T03:56:27;62.30;;;30.77;;
63110;SDS011;49201;53.426;10.300;2023-02-11T03:58:56;57.93;;;30.27;;
63110;SDS011;49201;53.426;10.300;2023-02-11T04:01:21;61.50;;;31.77;;
63110;SDS011;49201;53.426;10.300;2023-02-11T04:03:47;58.03;;;29.70;;
63110;SDS011;49201;53.426;10.300;2023-02-11T04:06:12;58.57;;;30.17;;
63110;SDS011;49201;53.426;10.300;2023-02-11T04:08:38;50.20;;;29.83;;
63110;SDS011;49201;53.426;10.300;2023-02-11T04:11:03;60.20;;;30.73;;
63110;SDS011;49201;53.426;10.300;2023-02-11T04:13:29;56.80;;;30.03;;
63110;SDS011;49201;53.426;10.300;2023-02-11T04:15:54;52.90;;;29.23;;
63110;SDS011;49201;53.426;10.300;2023-02-11T04:18:20;59.00;;;27.73;;
63110;SDS011;49201;53.426;10.300;2023-02-11T04:20:45;55.63;;;29.07;;
63110;SDS011;49201;53.426;10.300;2023-02-11T04:23:11;56.47;;;28.63;;
63110;SDS011;49201;53.426;10.300;2023-02-11T04:25:37;52.20;;;27.67;;
63110;SDS011;49201;53.426;10.300;2023-02-11T04:28:02;52.37;;;26.93;;
63110;SDS011;49201;53.426;10.300;2023-02-11T04:30:28;58.27;;;28.73;;
63110;SDS011;49201;53.426;10.300;2023-02-11T04:32:53;50.97;;;26.27;;
63110;SDS011;49201;53.426;10.300;2023-02-11T04:35:19;54.40;;;26.20;;
63110;SDS011;49201;53.426;10.300;2023-02-11T04:37:45;45.20;;;25.30;;
63110;SDS011;49201;53.426;10.300;2023-02-11T04:40:10;46.17;;;25.07;;
63110;SDS011;49201;53.426;10.300;2023-02-11T04:42:36;45.47;;;24.20;;
63110;SDS011;49201;53.426;10.300;2023-02-11T04:45:01;48.60;;;23.17;;
63110;SDS011;49201;53.426;10.300;2023-02-11T04:47:27;46.30;;;22.50;;
63110;SDS011;49201;53.426;10.300;2023-02-11T04:49:52;43.37;;;24.07;;
63110;SDS011;49201;53.426;10.300;2023-02-11T04:52:18;40.80;;;22.53;;
63110;SDS011;49201;53.426;10.300;2023-02-11T04:54:43;43.07;;;22.57;;
63110;SDS011;49201;53.426;10.300;2023-02-11T04:57:09;40.73;;;22.43;;
63110;SDS011;49201;53.426;10.300;2023-02-11T04:59:34;45.23;;;22.40;;
63110;SDS011;49201;53.426;10.300;2023-02-11T05:02:00;40.60;;;21.20;;
63110;SDS011;49201;53.426;10.300;2023-02-11T05:04:25;43.27;;;21.60;;
63110;SDS011;49201;53.426;10.300;2023-02-11T05:06:51;35.20;;;20.83;;
63110;SDS011;49201;53.426;10.300;2023-02-11T05:09:16;47.20;;;21.50;;
63110;SDS011;49201;53.426;10.300;2023-02-11T05:11:42;42.80;;;21.27;;
63110;SDS011;49201;53.426;10.300;2023-02-11T05:14:07;40.67;;;21.60;;
63110;SDS011;49201;53.426;10.300;2023-02-11T05:16:33;47.50;;;21.17;;
63110;SDS011;49201;53.426;10.300;2023-02-11T05:18:58;42.10;;;20.17;;
63110;SDS011;49201;53.426;10.300;2023-02-11T05:21:24;37.53;;;20.87;;
63110;SDS011;49201;53.426;10.300;2023-02-11T05:23:50;38.47;;;20.13;;
63110;SDS011;49201;53.426;10.300;2023-02-11T05:26:16;39.37;;;19.37;;
63110;SDS011;49201;53.426;10.300;2023-02-11T05:28:42;43.13;;;20.60;;
63110;SDS011;49201;53.426;10.300;2023-02-11T05:31:08;36.63;;;19.20;;
63110;SDS011;49201;53.426;10.300;2023-02-11T05:33:34;37.67;;;19.03;;
63110;SDS011;49201;53.426;10.300;2023-02-11T05:36:01;36.87;;;18.93;;
63110;SDS011;49201;53.426;10.300;2023-02-11T05:38:28;38.13;;;18.50;;
63110;SDS011;49201;53.426;10.300;2023-02-11T05:40:54;35.20;;;18.80;;
63110;SDS011;49201;53.426;10.300;2023-02-11T05:43:20;40.00;;;19.90;;
63110;SDS011;49201;53.426;10.300;2023-02-11T05:45:45;39.37;;;18.50;;
63110;SDS011;49201;53.426;10.300;2023-02-11T05:48:11;40.80;;;19.70;;
63110;SDS011;49201;53.426;10.300;2023-02-11T05:50:36;36.40;;;19.00;;
63110;SDS011;49201;53.426;10.300;2023-02-11T05:53:02;33.73;;;18.57;;
63110;SDS011;49201;53.426;10.300;2023-02-11T05:55:27;34.77;;;18.63;;
63110;SDS011;49201;53.426;10.300;2023-02-11T05:57:53;40.43;;;18.23;;
63110;SDS011;49201;53.426;10.300;2023-02-11T06:00:18;38.00;;;18.17;;
63110;SDS011;49201;53.426;10.300;2023-02-11T06:02:44;38.40;;;17.50;;
63110;SDS011;49201;53.426;10.300;2023-02-11T06:05:09;34.20;;;18.57;;
63110;SDS011;49201;53.426;10.300;2023-02-11T06:07:35;38.33;;;18.27;;
63110;SDS011;49201;53.426;10.300;2023-02-11T06:10:00;32.97;;;16.23;;
63110;SDS011;49201;53.426;10.300;2023-02-11T06:12:26;30.13;;;15.90;;
63110;SDS011;49201;53.426;10.300;2023-02-11T06:14:51;29.17;;;16.47;;
63110;SDS011;49201;53.426;10.300;2023-02-11T06:17:17;33.03;;;17.10;;
63110;SDS011;49201;53.426;10.300;2023-02-11T06:19:43;32.53;;;16.70;;
63110;SDS011;49201;53.426;10.300;2023-02-11T06:22:08;31.50;;;16.33;;
63110;SDS011;49201;53.426;10.300;2023-02-11T06:24:34;34.77;;;16.57;;
63110;SDS011;49201;53.426;10.300;2023-02-11T06:27:02;31.80;;;16.40;;
63110;SDS011;49201;53.426;10.300;2023-02-11T06:29:28;31.23;;;16.90;;
63110;SDS011;49201;53.426;10.300;2023-02-11T06:31:53;33.47;;;16.70;;
63110;SDS011;49201;53.426;10.300;2023-02-11T06:34:18;30.67;;;16.20;;
63110;SDS011;49201;53.426;10.300;2023-02-11T06:36:44;29.77;;;16.87;;
63110;SDS011;49201;53.426;10.300;2023-02-11T06:39:10;32.70;;;17.23;;
63110;SDS011;49201;53.426;10.300;2023-02-11T06:41:36;29.10;;;16.20;;
63110;SDS011;49201;53.426;10.300;2023-02-11T06:44:02;29.77;;;16.60;;
63110;SDS011;49201;53.426;10.300;2023-02-11T06:46:28;34.77;;;16.77;;
63110;SDS011;49201;53.426;10.300;2023-02-11T06:48:54;32.90;;;16.87;;
63110;SDS011;49201;53.426;10.300;2023-02-11T06:51:19;36.80;;;17.67;;
63110;SDS011;49201;53.426;10.300;2023-02-11T06:53:45;30.03;;;16.63;;
63110;SDS011;49201;53.426;10.300;2023-02-11T06:56:12;27.53;;;16.23;;
63110;SDS011;49201;53.426;10.300;2023-02-11T06:58:42;31.30;;;15.97;;
63110;SDS011;49201;53.426;10.300;2023-02-11T07:01:09;32.50;;;16.27;;
63110;SDS011;49201;53.426;10.300;2023-02-11T07:03:37;28.33;;;15.63;;
63110;SDS011;49201;53.426;10.300;2023-02-11T07:06:04;28.70;;;16.07;;
63110;SDS011;49201;53.426;10.300;2023-02-11T07:08:34;26.67;;;15.37;;
63110;SDS011;49201;53.426;10.300;2023-02-11T07:11:00;25.53;;;15.17;;
63110;SDS011;49201;53.426;10.300;2023-02-11T07:13:33;29.57;;;15.27;;
63110;SDS011;49201;53.426;10.300;2023-02-11T07:15:58;28.50;;;14.87;;
63110;SDS011;49201;53.426;10.300;2023-02-11T07:18:29;28.70;;;15.20;;
63110;SDS011;49201;53.426;10.300;2023-02-11T07:20:54;24.97;;;15.43;;
63110;SDS011;49201;53.426;10.300;2023-02-11T07:23:20;25.13;;;15.20;;
63110;SDS011;49201;53.426;10.300;2023-02-11T07:25:45;26.93;;;14.97;;
63110;SDS011;49201;53.426;10.300;2023-02-11T07:28:10;29.33;;;14.20;;
63110;SDS011;49201;53.426;10.300;2023-02-11T07:30:36;23.83;;;14.90;;
63110;SDS011;49201;53.426;10.300;2023-02-11T07:33:01;23.50;;;15.20;;
63110;SDS011;49201;53.426;10.300;2023-02-11T07:35:27;25.10;;;14.43;;
63110;SDS011;49201;53.426;10.300;2023-02-11T07:37:52;26.77;;;15.00;;
63110;SDS011;49201;53.426;10.300;2023-02-11T07:40:18;28.77;;;16.50;;
63110;SDS011;49201;53.426;10.300;2023-02-11T07:42:43;26.23;;;15.10;;
63110;SDS011;49201;53.426;10.300;2023-02-11T07:45:09;25.93;;;15.03;;
63110;SDS011;49201;53.426;10.300;2023-02-11T07:47:34;30.53;;;17.07;;
63110;SDS011;49201;53.426;10.300;2023-02-11T07:50:00;28.47;;;15.70;;
63110;SDS011;49201;53.426;10.300;2023-02-11T07:52:28;28.93;;;14.40;;
63110;SDS011;49201;53.426;10.300;2023-02-11T07:54:54;30.27;;;16.43;;
63110;SDS011;49201;53.426;10.300;2023-02-11T07:57:19;27.77;;;15.57;;
63110;SDS011;49201;53.426;10.300;2023-02-11T07:59:45;32.37;;;15.60;;
63110;SDS011;49201;53.426;10.300;2023-02-11T08:02:10;29.03;;;15.27;;
63110;SDS011;49201;53.426;10.300;2023-02-11T08:04:36;33.43;;;15.40;;
63110;SDS011;49201;53.426;10.300;2023-02-11T08:07:01;25.90;;;14.50;;
63110;SDS011;49201;53.426;10.300;2023-02-11T08:09:27;23.67;;;14.70;;
63110;SDS011;49201;53.426;10.300;2023-02-11T08:11:52;27.13;;;15.27;;
63110;SDS011;49201;53.426;10.300;2023-02-11T08:14:17;27.23;;;14.73;;
63110;SDS011;49201;53.426;10.300;2023-02-11T08:16:44;29.73;;;16.43;;
63110;SDS011;49201;53.426;10.300;2023-02-11T08:19:11;24.47;;;14.27;;
63110;SDS011;49201;53.426;10.300;2023-02-11T08:21:38;25.53;;;14.53;;
63110;SDS011;49201;53.426;10.300;2023-02-11T08:24:05;25.60;;;15.03;;
63110;SDS011;49201;53.426;10.300;2023-02-11T08:26:31;24.60;;;14.67;;
63110;SDS011;49201;53.426;10.300;2023-02-11T08:28:59;24.37;;;14.37;;
63110;SDS011;49201;53.426;10.300;2023-02-11T08:31:30;26.53;;;15.10;;
63110;SDS011;49201;53.426;10.300;2023-02-11T08:33:58;23.90;;;13.90;;
63110;SDS011;49201;53.426;10.300;2023-02-11T08:36:25;27.90;;;15.40;;
63110;SDS011;49201;53.426;10.300;2023-02-11T08:38:57;24.23;;;14.10;;
63110;SDS011;49201;53.426;10.300;2023-02-11T08:41:24;23.97;;;14.40;;
63110;SDS011;49201;53.426;10.300;2023-02-11T08:43:50;23.30;;;13.87;;
63110;SDS011;49201;53.426;10.300;2023-02-11T08:46:17;20.00;;;13.20;;
63110;SDS011;49201;53.426;10.300;2023-02-11T08:48:44;32.27;;;15.20;;
63110;SDS011;49201;53.426;10.300;2023-02-11T08:51:12;27.93;;;15.07;;
63110;SDS011;49201;53.426;10.300;2023-02-11T08:53:42;27.37;;;14.50;;
63110;SDS011;49201;53.426;10.300;2023-02-11T08:56:09;23.70;;;13.77;;
63110;SDS011;49201;53.426;10.300;2023-02-11T08:58:35;23.00;;;13.23;;
63110;SDS011;49201;53.426;10.300;2023-02-11T09:01:01;23.70;;;13.57;;
63110;SDS011;49201;53.426;10.300;2023-02-11T09:03:26;24.23;;;14.03;;
63110;SDS011;49201;53.426;10.300;2023-02-11T09:05:51;20.00;;;13.27;;
63110;SDS011;49201;53.426;10.300;2023-02-11T09:08:17;23.40;;;14.17;;
63110;SDS011;49201;53.426;10.300;2023-02-11T09:10:44;21.23;;;12.93;;
63110;SDS011;49201;53.426;10.300;2023-02-11T09:13:09;22.33;;;13.60;;
63110;SDS011;49201;53.426;10.300;2023-02-11T09:15:35;21.67;;;13.17;;
63110;SDS011;49201;53.426;10.300;2023-02-11T09:18:01;25.70;;;13.37;;
63110;SDS011;49201;53.426;10.300;2023-02-11T09:20:28;18.80;;;12.33;;
63110;SDS011;49201;53.426;10.300;2023-02-11T09:22:53;18.40;;;12.63;;
63110;SDS011;49201;53.426;10.300;2023-02-11T09:25:22;22.17;;;12.50;;
63110;SDS011;49201;53.426;10.300;2023-02-11T09:27:48;20.57;;;10.83;;
63110;SDS011;49201;53.426;10.300;2023-02-11T09:30:15;19.93;;;11.50;;
63110;SDS011;49201;53.426;10.300;2023-02-11T09:32:41;24.30;;;13.13;;
63110;SDS011;49201;53.426;10.300;2023-02-11T09:35:06;17.40;;;11.43;;
63110;SDS011;49201;53.426;10.300;2023-02-11T09:37:32;17.93;;;11.60;;
63110;SDS011;49201;53.426;10.300;2023-02-11T09:39:57;20.73;;;12.13;;
63110;SDS011;49201;53.426;10.300;2023-02-11T09:42:43;20.47;;;11.67;;
63110;SDS011;49201;53.426;10.300;2023-02-11T09:45:18;17.33;;;10.60;;
63110;SDS011;49201;53.426;10.300;2023-02-11T09:47:49;21.23;;;10.97;;
63110;SDS011;49201;53.426;10.300;2023-02-11T09:53:03;16.63;;;10.33;;
63110;SDS011;49201;53.426;10.300;2023-02-11T09:55:38;19.83;;;10.70;;
63110;SDS011;49201;53.426;10.300;2023-02-11T09:58:18;19.50;;;10.60;;
63110;SDS011;49201;53.426;10.300;2023-02-11T10:20:22;18.83;;;9.77;;
63110;SDS011;49201;53.426;10.300;2023-02-11T10:22:57;20.87;;;10.20;;
63110;SDS011;49201;53.426;10.300;2023-02-11T10:28:28;19.77;;;9.47;;
63110;SDS011;49201;53.426;10.300;2023-02-11T10:31:00;17.30;;;9.93;;
63110;SDS011;49201;53.426;10.300;2023-02-11T10:33:30;19.93;;;9.53;;
63110;SDS011;49201;53.426;10.300;2023-02-11T10:36:01;19.10;;;9.70;;
63110;SDS011;49201;53.426;10.300;2023-02-11T10:38:28;19.47;;;10.03;;
63110;SDS011;49201;53.426;10.300;2023-02-11T10:40:53;20.37;;;10.57;;
63110;SDS011;49201;53.426;10.300;2023-02-11T10:43:20;18.00;;;9.67;;
63110;SDS011;49201;53.426;10.300;2023-02-11T10:45:50;13.80;;;9.27;;
63110;SDS011;49201;53.426;10.300;2023-02-11T10:53:33;17.63;;;10.07;;
63110;SDS011;49201;53.426;10.300;2023-02-11T10:55:59;17.33;;;10.23;;
63110;SDS011;49201;53.426;10.300;2023-02-11T10:58:35;18.50;;;10.53;;
63110;SDS011;49201;53.426;10.300;2023-02-11T11:01:08;21.20;;;11.03;;
63110;SDS011;49201;53.426;10.300;2023-02-11T11:03:55;19.57;;;12.03;;
63110;SDS011;49201;53.426;10.300;2023-02-11T11:06:32;23.47;;;11.63;;
63110;SDS011;49201;53.426;10.300;2023-02-11T11:08:58;24.97;;;11.20;;
63110;SDS011;49201;53.426;10.300;2023-02-11T11:11:25;18.30;;;10.50;;
63110;SDS011;49201;53.426;10.300;2023-02-11T11:18:47;24.47;;;10.47;;
63110;SDS011;49201;53.426;10.300;2023-02-11T11:21:25;23.43;;;10.40;;
63110;SDS011;49201;53.426;10.300;2023-02-11T11:23:56;22.63;;;10.40;;
63110;SDS011;49201;53.426;10.300;2023-02-11T11:26:24;19.57;;;10.53;;
63110;SDS011;49201;53.426;10.300;2023-02-11T11:28:53;20.80;;;10.60;;
63110;SDS011;49201;53.426;10.300;2023-02-11T11:31:23;21.13;;;10.47;;
63110;SDS011;49201;53.426;10.300;2023-02-11T11:33:56;20.93;;;10.07;;
63110;SDS011;49201;53.426;10.300;2023-02-11T11:36:33;18.30;;;9.50;;
63110;SDS011;49201;53.426;10.300;2023-02-11T11:39:09;15.57;;;9.30;;
63110;SDS011;49201;53.426;10.300;2023-02-11T11:41:49;16.67;;;9.40;;
63110;SDS011;49201;53.426;10.300;2023-02-11T11:44:57;18.30;;;9.23;;
63110;SDS011;49201;53.426;10.300;2023-02-11T11:47:26;15.80;;;8.20;;
63110;SDS011;49201;53.426;10.300;2023-02-11T11:52:49;18.57;;;9.23;;
63110;SDS011;49201;53.426;10.300;2023-02-11T11:55:18;18.23;;;8.27;;
63110;SDS011;49201;53.426;10.300;2023-02-11T11:57:46;18.87;;;8.70;;
63110;SDS011;49201;53.426;10.300;2023-02-11T12:00:26;17.50;;;8.70;;
63110;SDS011;49201;53.426;10.300;2023-02-11T12:05:51;15.87;;;7.90;;
63110;SDS011;49201;53.426;10.300;2023-02-11T12:08:38;14.30;;;8.30;;
63110;SDS011;49201;53.426;10.300;2023-02-11T12:33:35;16.23;;;7.90;;
63110;SDS011;49201;53.426;10.300;2023-02-11T12:35:58;22.77;;;7.70;;
63110;SDS011;49201;53.426;10.300;2023-02-11T12:43:39;24.67;;;8.77;;
63110;SDS011;49201;53.426;10.300;2023-02-11T12:48:46;17.70;;;8.27;;
63110;SDS011;49201;53.426;10.300;2023-02-11T12:59:47;18.23;;;9.07;;
63110;SDS011;49201;53.426;10.300;2023-02-11T13:05:22;18.97;;;7.90;;
63110;SDS011;49201;53.426;10.300;2023-02-11T13:08:15;20.97;;;8.53;;
63110;SDS011;49201;53.426;10.300;2023-02-11T13:10:56;18.87;;;8.60;;
63110;SDS011;49201;53.426;10.300;2023-02-11T13:13:26;16.53;;;9.07;;
63110;SDS011;49201;53.426;10.300;2023-02-11T13:31:40;13.87;;;6.40;;
63110;SDS011;49201;53.426;10.300;2023-02-11T13:37:23;13.20;;;6.47;;
63110;SDS011;49201;53.426;10.300;2023-02-11T13:42:55;15.13;;;8.60;;
63110;SDS011;49201;53.426;10.300;2023-02-11T13:48:16;14.57;;;5.43;;
63110;SDS011;49201;53.426;10.300;2023-02-11T13:50:47;12.70;;;5.20;;
63110;SDS011;49201;53.426;10.300;2023-02-11T13:53:14;9.43;;;4.23;;
63110;SDS011;49201;53.426;10.300;2023-02-11T13:55:45;8.03;;;4.20;;
63110;SDS011;49201;53.426;10.300;2023-02-11T14:16:26;21.60;;;8.73;;
63110;SDS011;49201;53.426;10.300;2023-02-11T14:23:52;12.27;;;7.60;;
63110;SDS011;49201;53.426;10.300;2023-02-11T14:29:29;12.97;;;7.10;;
63110;SDS011;49201;53.426;10.300;2023-02-11T14:34:45;14.87;;;6.37;;
63110;SDS011;49201;53.426;10.300;2023-02-11T14:37:19;15.67;;;7.17;;
63110;SDS011;49201;53.426;10.300;2023-02-11T14:39:57;18.97;;;10.47;;
63110;SDS011;49201;53.426;10.300;2023-02-11T14:42:33;18.87;;;11.23;;
63110;SDS011;49201;53.426;10.300;2023-02-11T14:45:03;23.33;;;12.33;;
63110;SDS011;49201;53.426;10.300;2023-02-11T14:47:43;23.30;;;11.80;;
63110;SDS011;49201;53.426;10.300;2023-02-11T14:50:16;17.93;;;11.40;;
63110;SDS011;49201;53.426;10.300;2023-02-11T14:52:46;24.23;;;11.93;;
63110;SDS011;49201;53.426;10.300;2023-02-11T14:57:44;19.60;;;9.70;;
63110;SDS011;49201;53.426;10.300;2023-02-11T15:02:44;13.50;;;7.17;;
63110;SDS011;49201;53.426;10.300;2023-02-11T15:05:17;19.50;;;8.33;;
63110;SDS011;49201;53.426;10.300;2023-02-11T15:07:46;20.23;;;7.33;;
63110;SDS011;49201;53.426;10.300;2023-02-11T15:10:36;25.17;;;9.40;;
63110;SDS011;49201;53.426;10.300;2023-02-11T15:13:01;18.87;;;8.60;;
63110;SDS011;49201;53.426;10.300;2023-02-11T15:15:28;19.47;;;7.57;;
63110;SDS011;49201;53.426;10.300;2023-02-11T15:17:56;21.53;;;8.40;;
63110;SDS011;49201;53.426;10.300;2023-02-11T15:20:26;23.77;;;9.50;;
63110;SDS011;49201;53.426;10.300;2023-02-11T15:22:59;23.07;;;10.07;;
63110;SDS011;49201;53.426;10.300;2023-02-11T15:25:27;19.57;;;9.70;;
63110;SDS011;49201;53.426;10.300;2023-02-11T15:27:56;29.27;;;11.77;;
63110;SDS011;49201;53.426;10.300;2023-02-11T15:32:48;30.00;;;15.20;;
63110;SDS011;49201;53.426;10.300;2023-02-11T15:35:27;26.97;;;15.07;;
63110;SDS011;49201;53.426;10.300;2023-02-11T15:37:59;28.83;;;16.97;;
63110;SDS011;49201;53.426;10.300;2023-02-11T15:40:29;38.17;;;18.33;;
63110;SDS011;49201;53.426;10.300;2023-02-11T15:42:58;29.10;;;17.67;;
63110;SDS011;49201;53.426;10.300;2023-02-11T15:50:33;37.20;;;17.77;;
63110;SDS011;49201;53.426;10.300;2023-02-11T15:53:12;43.20;;;19.20;;
63110;SDS011;49201;53.426;10.300;2023-02-11T15:56:18;36.87;;;18.13;;
63110;SDS011;49201;53.426;10.300;2023-02-11T15:58:48;37.67;;;19.60;;
63110;SDS011;49201;53.426;10.300;2023-02-11T16:01:15;37.30;;;19.63;;
63110;SDS011;49201;53.426;10.300;2023-02-11T16:03:41;44.97;;;20.53;;
63110;SDS011;49201;53.426;10.300;2023-02-11T16:06:14;42.97;;;19.53;;
63110;SDS011;49201;53.426;10.300;2023-02-11T16:08:40;39.57;;;19.20;;
63110;SDS011;49201;53.426;10.300;2023-02-11T16:11:53;36.57;;;18.43;;
63110;SDS011;49201;53.426;10.300;2023-02-11T16:14:00;38.70;;;20.53;;
63110;SDS011;49201;53.426;10.300;2023-02-11T16:16:27;39.27;;;19.17;;
63110;SDS011;49201;53.426;10.300;2023-02-11T16:18:59;34.83;;;19.13;;
63110;SDS011;49201;53.426;10.300;2023-02-11T16:21:30;37.63;;;20.37;;
63110;SDS011;49201;53.426;10.300;2023-02-11T16:23:59;35.60;;;16.70;;
63110;SDS011;49201;53.426;10.300;2023-02-11T16:26:29;35.93;;;17.03;;
63110;SDS011;49201;53.426;10.300;2023-02-11T16:29:04;37.43;;;18.40;;
63110;SDS011;49201;53.426;10.300;2023-02-11T16:31:36;34.57;;;17.40;;
63110;SDS011;49201;53.426;10.300;2023-02-11T16:34:06;38.60;;;18.77;;
63110;SDS011;49201;53.426;10.300;2023-02-11T16:36:39;37.20;;;18.90;;
63110;SDS011;49201;53.426;10.300;2023-02-11T16:39:05;46.43;;;19.70;;
63110;SDS011;49201;53.426;10.300;2023-02-11T16:41:30;40.93;;;18.77;;
63110;SDS011;49201;53.426;10.300;2023-02-11T16:43:56;43.37;;;17.57;;
63110;SDS011;49201;53.426;10.300;2023-02-11T16:46:22;44.13;;;16.47;;
63110;SDS011;49201;53.426;10.300;2023-02-11T16:48:48;39.70;;;16.60;;
63110;SDS011;49201;53.426;10.300;2023-02-11T16:51:14;44.17;;;19.60;;
63110;SDS011;49201;53.426;10.300;2023-02-11T16:53:39;39.87;;;18.53;;
63110;SDS011;49201;53.426;10.300;2023-02-11T16:56:05;48.20;;;19.93;;
63110;SDS011;49201;53.426;10.300;2023-02-11T16:58:31;50.70;;;20.63;;
63110;SDS011;49201;53.426;10.300;2023-02-11T17:00:56;43.40;;;18.30;;
63110;SDS011;49201;53.426;10.300;2023-02-11T17:03:22;34.47;;;14.47;;
63110;SDS011;49201;53.426;10.300;2023-02-11T17:05:50;27.27;;;11.27;;
63110;SDS011;49201;53.426;10.300;2023-02-11T17:08:17;29.20;;;9.53;;
63110;SDS011;49201;53.426;10.300;2023-02-11T17:10:43;27.77;;;10.87;;
63110;SDS011;49201;53.426;10.300;2023-02-11T17:13:08;33.50;;;10.57;;
63110;SDS011;49201;53.426;10.300;2023-02-11T17:15:34;34.53;;;13.17;;
63110;SDS011;49201;53.426;10.300;2023-02-11T17:17:59;31.97;;;12.03;;
63110;SDS011;49201;53.426;10.300;2023-02-11T17:20:25;29.23;;;12.47;;
63110;SDS011;49201;53.426;10.300;2023-02-11T17:22:50;28.53;;;13.33;;
63110;SDS011;49201;53.426;10.300;2023-02-11T17:25:16;35.87;;;13.17;;
63110;SDS011;49201;53.426;10.300;2023-02-11T17:27:42;45.07;;;14.87;;
63110;SDS011;49201;53.426;10.300;2023-02-11T17:30:09;44.07;;;16.60;;
63110;SDS011;49201;53.426;10.300;2023-02-11T17:32:35;40.47;;;15.63;;